Airfield :
LOGIN :

Register | Disclaimer

   EN    FR    IT 

 










Legend :    VFR   Marginal VFR   IFR   Intensive IFR   Very Intensive IFR
Visi :
Ceiling :
>= 8 km
>= 3000ft
5 to 8 km
1000 to 3000 ft
1500m to 5 km
500 to 1000 ft
800 to 1500m
200 to 500 ft
< 800m
< 200 ft
Symbols :   Thunderstorms  Fog  Heavy snow  Heavy precipitations  Wind > 20 kt
SIGMETs :     Misc.  Thunderstorms  Icing  Turbulence  Mountain Waves  Volcanic Ashes






- Airport Elevation : 26 ft
- IATA code : BIA


LFKB - Bastia

CURRENT METAR :
  • 211800Z AUTO 21003KT 9999 FEW068 08/06 Q1012 NOSIG

EXPIRED METARs :
  • 211730Z AUTO 19003KT 9999 FEW064 09/06 Q1012 NOSIG
  • 211700Z AUTO VRB02KT 9999 FEW064 10/07 Q1012 NOSIG
  • 211630Z AUTO 16001KT 9999 FEW068 BKN080 11/07 Q1012 NOSIG
  • 211600Z AUTO 32004KT 290V030 9999 FEW066 13/07 Q1012 NOSIG
  • 211530Z AUTO VRB02KT 9999 SCT070 15/08 Q1012 NOSIG

TAF TAF LFKB
Valid from the 21 at 15:00 until the 22 at 15:00 UTC


211400Z 2115/2215 09004KT 9999 FEW040 SCT100 TX16/2212Z TN09/2206Z
BECMG 2117/2119 18004KT
BECMG 2210/2212 18012KT FEW030 FEW040TCU BKN045
TEMPO 2213/2215 17015G25KT SHRA FEW020 FEW035CB BKN045
ATIS : +33 4 95 59 19 40



MET'MAP, your aeronautical weather chart ! - Copyright ORBIFLY December 2007 - Disclaimer

ORBIFLY MET'MAP TEAM :

Programming & Development : Alexandra Zaïnal
Concept & original design : Baudouin d'Aumeries
Assistance for programming : Marc-Olivier Méhu
Technical & hardware support : Manuel Goepfert

Contact : metmap@orbifly.com




SOURCES & CREDITS :

   NOAA